Terminal Aerodrome Forecast
Issued by NWS Cleveland, OH

Home | Current Version | Previous Version | Graphics & Text | Print | Product List | Glossary On
Versions: 1 2 3 4 5 6 7 8 9 10 11 12 13 14 15 16 17 18 19 20
000
FTUS41 KCLE 280700 AAA
TAFMFD
TAF AMD
KMFD 280714Z 2807/2906 26008KT P6SM BKN003
      TEMPO 2807/2811 BKN008
     FM281200 32010KT P6SM OVC006
     FM281500 34014KT P6SM BKN018
     FM281800 34014G22KT P6SM BKN035
     FM290100 31006KT P6SM SCT040 BKN100=

USA.gov is the U.S. government's official web portal to all federal, state and local government web resources and services.